Time;durP1;ratioP1;P1;durP2;ratioP2;P2;SDS_P1;SDS_P2;PMS_P1;PMS_P2;Temp;Humidity;BMP_temperature;BMP_pressure;BME280_temperature;BME280_humidity;BME280_pressure;Samples;Min_cycle;Max_cycle;Signal;HPM_P1;HPM_P2
2023/04/01 00:02:18;;;;;;;6.10;3.30;;;10.40;99.90;;;;;;5057737;28;20046;-81
2023/04/01 00:04:45;;;;;;;5.43;3.10;;;10.40;99.90;;;;;;5057634;28;20415;-76
2023/04/01 00:07:11;;;;;;;7.45;3.47;;;10.30;99.90;;;;;;5091353;28;20040;-80
2023/04/01 00:09:37;;;;;;;6.43;3.50;;;10.40;99.90;;;;;;5073823;28;20560;-76
2023/04/01 00:12:03;;;;;;;6.47;3.00;;;10.40;99.90;;;;;;5074029;28;20036;-76
2023/04/01 00:14:29;;;;;;;5.70;3.45;;;10.40;99.90;;;;;;5056971;28;20036;-81
2023/04/01 00:16:55;;;;;;;6.65;3.20;;;10.40;99.90;;;;;;5074099;28;20044;-81
2023/04/01 00:19:21;;;;;;;6.13;3.40;;;10.40;99.90;;;;;;5073988;28;20452;-76
2023/04/01 00:21:47;;;;;;;5.18;3.13;;;10.40;99.90;;;;;;5073055;28;20090;-76
2023/04/01 00:24:14;;;;;;;8.43;3.20;;;10.40;99.90;;;;;;5057840;28;20088;-78
2023/04/01 00:26:42;;;;;;;6.35;3.50;;;10.40;99.90;;;;;;5063725;28;20489;-76
2023/04/01 00:29:08;;;;;;;6.50;3.15;;;10.40;99.90;;;;;;5047746;28;20040;-77
2023/04/01 00:31:34;;;;;;;4.85;3.40;;;10.40;99.90;;;;;;5074743;28;20035;-77
2023/04/01 00:34:00;;;;;;;5.93;3.75;;;10.40;99.90;;;;;;5094214;28;20044;-79
2023/04/01 00:36:25;;;;;;;6.40;3.60;;;10.40;99.90;;;;;;5058705;28;20058;-77
2023/04/01 00:38:51;;;;;;;6.35;3.70;;;10.40;99.90;;;;;;5057372;28;20046;-76
2023/04/01 00:41:19;;;;;;;6.10;3.30;;;10.40;99.90;;;;;;5073669;28;20089;-76
2023/04/01 00:43:48;;;;;;;6.00;3.25;;;10.40;99.90;;;;;;5091358;28;20507;-76
2023/04/01 00:46:17;;;;;;;7.65;3.58;;;10.40;99.90;;;;;;5065368;28;20036;-77
2023/04/01 00:48:51;;;;;;;7.35;3.45;;;10.40;99.90;;;;;;5073424;28;20123;-77
2023/04/01 00:51:24;;;;;;;4.82;3.28;;;10.40;99.90;;;;;;5056338;28;20122;-77
2023/04/01 00:53:56;;;;;;;7.13;3.58;;;10.40;99.90;;;;;;5073881;28;20119;-77
2023/04/01 00:56:32;;;;;;;7.47;3.65;;;10.40;99.90;;;;;;5072783;28;20044;-81
2023/04/01 00:59:08;;;;;;;7.88;3.90;;;10.40;99.90;;;;;;5071659;28;20059;-76
2023/04/01 01:01:35;;;;;;;5.63;3.45;;;10.40;99.90;;;;;;5054336;28;20123;-76
2023/04/01 01:04:02;;;;;;;8.48;3.60;;;10.40;99.90;;;;;;5073177;28;20043;-77
2023/04/01 01:06:38;;;;;;;6.20;3.10;;;10.40;99.90;;;;;;5056037;28;20043;-77
2023/04/01 01:09:24;;;;;;;5.95;3.30;;;10.40;99.90;;;;;;5073572;28;20559;-81
2023/04/01 01:12:12;;;;;;;6.57;3.40;;;10.40;99.90;;;;;;5051854;28;20336;-76
2023/04/01 01:15:01;;;;;;;7.00;3.38;;;10.40;99.90;;;;;;5066812;28;20040;-76
2023/04/01 01:17:44;;;;;;;7.35;3.70;;;10.40;99.90;;;;;;5065349;28;20441;-78
2023/04/01 01:20:10;;;;;;;5.75;3.00;;;10.40;99.90;;;;;;5081356;28;20060;-78
2023/04/01 01:22:45;;;;;;;5.85;3.47;;;10.40;99.90;;;;;;5056522;28;20071;-76
2023/04/01 01:25:49;;;;;;;8.43;4.00;;;10.40;99.90;;;;;;5056135;28;20043;-77
2023/04/01 01:28:47;;;;;;;6.43;3.58;;;10.40;99.90;;;;;;5067354;28;20480;-81
2023/04/01 01:31:29;;;;;;;6.10;3.35;;;10.40;99.90;;;;;;5076335;28;20064;-76
2023/04/01 01:34:24;;;;;;;6.50;3.40;;;10.40;99.90;;;;;;5060130;28;20050;-80
2023/04/01 01:36:56;;;;;;;5.93;3.63;;;10.40;99.90;;;;;;5076344;28;20118;-76
2023/04/01 01:39:30;;;;;;;6.00;3.77;;;10.40;99.90;;;;;;5073444;28;20127;-78
2023/04/01 01:42:04;;;;;;;5.82;3.28;;;10.40;99.90;;;;;;5073260;28;20286;-78
2023/04/01 01:44:31;;;;;;;5.90;3.60;;;10.40;99.90;;;;;;5058915;28;20074;-79
2023/04/01 01:46:57;;;;;;;6.35;3.60;;;10.40;99.90;;;;;;5075454;28;20040;-76
2023/04/01 01:49:23;;;;;;;7.10;4.05;;;10.40;99.90;;;;;;5075445;28;20036;-76
2023/04/01 01:51:49;;;;;;;7.55;3.67;;;10.40;99.90;;;;;;5075901;28;20210;-76
2023/04/01 01:54:17;;;;;;;5.95;3.35;;;10.40;99.90;;;;;;5069308;28;20131;-76
2023/04/01 01:56:47;;;;;;;5.88;3.35;;;10.40;99.90;;;;;;5070784;28;20043;-76
2023/04/01 01:59:15;;;;;;;6.53;3.45;;;10.40;99.90;;;;;;5076196;28;20399;-76
2023/04/01 02:01:45;;;;;;;6.68;3.55;;;10.40;99.90;;;;;;5093297;28;20032;-77
2023/04/01 02:04:12;;;;;;;5.70;3.22;;;10.40;99.90;;;;;;5075852;28;20499;-77
2023/04/01 02:06:44;;;;;;;6.03;3.55;;;10.40;99.90;;;;;;5075309;28;20063;-79
2023/04/01 02:09:11;;;;;;;7.68;3.70;;;10.40;99.90;;;;;;5058701;28;20036;-81
2023/04/01 02:11:48;;;;;;;7.03;3.97;;;10.40;99.90;;;;;;5075371;28;20067;-77
2023/04/01 02:14:19;;;;;;;6.00;3.83;;;10.40;99.90;;;;;;5074790;28;20043;-80
2023/04/01 02:16:57;;;;;;;7.67;3.90;;;10.40;99.90;;;;;;5070095;28;20449;-76
2023/04/01 02:19:27;;;;;;;7.80;3.90;;;10.40;99.90;;;;;;5074653;28;20377;-79
2023/04/01 02:21:59;;;;;;;7.32;4.05;;;10.40;99.90;;;;;;5075772;28;20434;-76
2023/04/01 02:24:27;;;;;;;6.93;4.05;;;10.40;99.90;;;;;;5068496;28;20085;-77
2023/04/01 02:26:53;;;;;;;7.63;3.92;;;10.40;99.90;;;;;;5074650;28;20061;-79
2023/04/01 02:29:21;;;;;;;5.68;3.63;;;10.40;99.90;;;;;;5075135;28;20047;-80
2023/04/01 02:31:48;;;;;;;6.50;4.20;;;10.40;99.90;;;;;;5074654;28;20123;-78
2023/04/01 02:34:14;;;;;;;6.43;3.78;;;10.40;99.90;;;;;;5093375;28;20407;-76
2023/04/01 02:36:39;;;;;;;5.72;3.60;;;10.40;99.90;;;;;;5071793;28;20036;-77
2023/04/01 02:39:06;;;;;;;7.25;4.00;;;10.40;99.90;;;;;;5055612;28;20048;-78
2023/04/01 02:41:31;;;;;;;6.85;4.20;;;10.40;99.90;;;;;;5072845;28;20586;-77
2023/04/01 02:43:58;;;;;;;5.80;3.53;;;10.40;99.90;;;;;;5076197;28;20123;-80
2023/04/01 02:46:24;;;;;;;6.57;3.80;;;10.40;99.90;;;;;;5049968;28;20111;-76
2023/04/01 02:48:50;;;;;;;5.43;3.80;;;10.40;99.90;;;;;;5081897;28;20040;-77
2023/04/01 02:51:16;;;;;;;5.63;3.72;;;10.40;99.90;;;;;;5076060;28;20484;-76
2023/04/01 02:53:41;;;;;;;6.07;4.20;;;10.40;99.90;;;;;;5070135;28;20035;-78
2023/04/01 02:56:07;;;;;;;7.65;4.55;;;10.40;99.90;;;;;;5073505;28;20113;-76
2023/04/01 02:58:32;;;;;;;5.95;3.92;;;10.40;99.90;;;;;;5077561;28;20574;-76
2023/04/01 03:00:58;;;;;;;7.60;4.43;;;10.40;99.90;;;;;;5074923;28;20142;-76
2023/04/01 03:03:23;;;;;;;6.00;4.07;;;10.40;99.90;;;;;;5085290;28;20419;-79
2023/04/01 03:05:49;;;;;;;6.25;4.28;;;10.40;99.90;;;;;;5057229;28;20519;-76
2023/04/01 03:08:15;;;;;;;7.00;4.13;;;10.40;99.90;;;;;;5077301;28;20510;-77
2023/04/01 03:10:40;;;;;;;7.88;4.38;;;10.40;99.90;;;;;;5070457;28;20036;-78
2023/04/01 03:13:06;;;;;;;7.28;4.30;;;10.40;99.90;;;;;;5074409;28;20545;-79
2023/04/01 03:15:31;;;;;;;5.90;4.28;;;10.40;99.90;;;;;;5074009;28;20445;-76
2023/04/01 03:17:57;;;;;;;6.25;4.55;;;10.40;99.90;;;;;;5074649;28;20040;-77
2023/04/01 03:20:23;;;;;;;7.35;4.75;;;10.40;99.90;;;;;;5073957;28;20133;-76
2023/04/01 03:22:48;;;;;;;8.13;4.95;;;10.40;99.90;;;;;;5074190;28;20119;-78
2023/04/01 03:25:14;;;;;;;8.15;4.78;;;10.40;99.90;;;;;;5073313;28;20051;-78
2023/04/01 03:27:40;;;;;;;7.57;4.50;;;10.40;99.90;;;;;;5073065;28;20068;-78
2023/04/01 03:30:06;;;;;;;7.50;4.38;;;10.40;99.90;;;;;;5056921;28;20044;-78
2023/04/01 03:32:32;;;;;;;7.30;4.80;;;10.40;99.90;;;;;;5071561;28;20040;-78
2023/04/01 03:34:58;;;;;;;8.30;4.60;;;10.40;99.90;;;;;;5091828;28;20040;-78
2023/04/01 03:37:24;;;;;;;5.85;4.28;;;10.40;99.90;;;;;;5066852;28;20389;-78
2023/04/01 03:39:50;;;;;;;9.13;4.80;;;10.40;99.90;;;;;;5073617;28;20047;-78
2023/04/01 03:42:16;;;;;;;6.72;4.13;;;10.40;99.90;;;;;;5073491;28;20075;-78
2023/04/01 03:44:45;;;;;;;6.75;4.72;;;10.40;99.90;;;;;;5073240;28;20071;-78
2023/04/01 03:47:10;;;;;;;8.45;5.05;;;10.40;99.90;;;;;;5071677;28;20075;-78
2023/04/01 03:49:36;;;;;;;8.23;4.90;;;10.40;99.90;;;;;;5073041;28;20645;-78
2023/04/01 03:52:02;;;;;;;8.23;4.95;;;10.40;99.90;;;;;;5068858;28;20033;-78
2023/04/01 03:54:27;;;;;;;6.50;4.68;;;10.40;99.90;;;;;;5056719;28;20506;-78
2023/04/01 03:56:53;;;;;;;9.18;4.95;;;10.40;99.90;;;;;;5072744;28;20104;-78
2023/04/01 03:59:18;;;;;;;6.50;4.38;;;10.40;99.90;;;;;;5065369;28;20071;-78
2023/04/01 04:01:46;;;;;;;7.68;4.70;;;10.40;99.90;;;;;;5070385;28;20040;-78
2023/04/01 04:04:14;;;;;;;7.63;4.97;;;10.40;99.90;;;;;;5062633;28;20163;-79
2023/04/01 04:06:40;;;;;;;7.65;5.10;;;10.40;99.90;;;;;;5087586;28;20036;-78
2023/04/01 04:09:06;;;;;;;7.70;4.55;;;10.40;99.90;;;;;;5064134;28;20036;-78
2023/04/01 04:11:32;;;;;;;8.68;4.72;;;10.40;99.90;;;;;;5072906;28;20119;-79
2023/04/01 04:13:58;;;;;;;7.78;4.43;;;10.40;99.90;;;;;;5070050;28;20048;-78
2023/04/01 04:16:24;;;;;;;6.38;4.13;;;10.40;99.90;;;;;;5070350;28;20043;-78
2023/04/01 04:18:50;;;;;;;8.15;5.00;;;10.40;99.90;;;;;;5067335;28;20036;-78
2023/04/01 04:21:16;;;;;;;7.38;4.82;;;10.40;99.90;;;;;;5071024;28;20048;-78
2023/04/01 04:23:43;;;;;;;9.25;4.65;;;10.40;99.90;;;;;;5072829;28;20047;-78
2023/04/01 04:26:11;;;;;;;6.75;4.30;;;10.40;99.90;;;;;;5073016;28;20102;-78
2023/04/01 04:28:37;;;;;;;7.38;4.65;;;10.40;99.90;;;;;;5070667;28;20035;-78
2023/04/01 04:31:05;;;;;;;7.35;4.97;;;10.60;99.90;;;;;;5073183;28;20416;-78
2023/04/01 04:33:31;;;;;;;6.32;4.65;;;10.40;99.90;;;;;;5056605;28;20493;-78
2023/04/01 04:35:58;;;;;;;8.88;4.78;;;10.40;99.90;;;;;;5088304;28;20067;-78
2023/04/01 04:38:24;;;;;;;8.05;4.80;;;10.40;99.90;;;;;;5058164;28;20048;-78
2023/04/01 04:40:49;;;;;;;8.68;5.03;;;10.60;99.90;;;;;;5072575;28;20126;-78
2023/04/01 04:43:17;;;;;;;7.47;5.05;;;10.40;99.90;;;;;;5083902;28;20123;-78
2023/04/01 04:45:43;;;;;;;8.05;5.00;;;10.40;99.90;;;;;;5070520;28;20480;-78
2023/04/01 04:48:10;;;;;;;6.97;4.68;;;10.40;99.90;;;;;;5085301;28;20038;-78
2023/04/01 04:50:35;;;;;;;8.23;4.72;;;10.40;99.90;;;;;;5073036;28;20043;-78
2023/04/01 04:53:02;;;;;;;7.32;4.68;;;10.40;99.90;;;;;;5072557;28;20496;-78
2023/04/01 04:55:28;;;;;;;7.53;5.00;;;10.40;99.90;;;;;;5072401;28;20032;-78
2023/04/01 04:57:53;;;;;;;8.10;5.03;;;10.40;99.90;;;;;;5055426;28;20109;-78
2023/04/01 05:00:19;;;;;;;8.85;5.40;;;10.40;99.90;;;;;;5090646;28;20115;-78
2023/04/01 05:02:45;;;;;;;8.10;5.30;;;10.40;99.90;;;;;;5060231;28;20463;-78
2023/04/01 05:05:10;;;;;;;9.80;5.10;;;10.40;99.90;;;;;;5076110;28;20040;-78
2023/04/01 05:07:36;;;;;;;8.93;5.47;;;10.40;99.90;;;;;;5076861;28;20028;-78
2023/04/01 05:10:02;;;;;;;9.38;5.53;;;10.40;99.90;;;;;;5076507;28;20461;-78
2023/04/01 05:12:28;;;;;;;7.78;4.90;;;10.30;99.90;;;;;;5075598;28;20028;-78
2023/04/01 05:14:53;;;;;;;7.88;4.68;;;10.40;99.90;;;;;;5076045;28;20105;-78
2023/04/01 05:17:19;;;;;;;8.52;4.35;;;10.40;99.90;;;;;;5065481;28;20488;-78
2023/04/01 05:19:44;;;;;;;6.60;4.28;;;10.40;99.90;;;;;;5094994;28;20120;-78
2023/04/01 05:22:10;;;;;;;5.53;3.85;;;10.40;99.90;;;;;;5075991;28;20040;-78
2023/04/01 05:24:36;;;;;;;8.57;4.63;;;10.40;99.90;;;;;;5076328;28;20032;-78
2023/04/01 05:27:01;;;;;;;6.63;4.32;;;10.40;99.90;;;;;;5090008;28;20028;-78
2023/04/01 05:29:27;;;;;;;6.57;3.88;;;10.40;99.90;;;;;;5074473;28;20039;-78
2023/04/01 05:31:53;;;;;;;6.43;4.03;;;10.40;99.90;;;;;;5076365;28;20381;-78
2023/04/01 05:34:19;;;;;;;7.25;4.20;;;10.40;99.90;;;;;;5075902;28;20130;-78
2023/04/01 05:36:44;;;;;;;6.97;4.38;;;11.20;99.90;;;;;;5075675;28;20115;-78
2023/04/01 05:39:10;;;;;;;7.70;4.25;;;10.40;99.90;;;;;;5072168;28;20041;-78
2023/04/01 05:41:36;;;;;;;6.90;4.07;;;10.40;99.90;;;;;;5076965;28;20070;-78
2023/04/01 05:44:02;;;;;;;5.50;3.70;;;10.40;99.90;;;;;;5058741;28;20083;-78
2023/04/01 05:46:28;;;;;;;6.82;3.95;;;10.40;99.90;;;;;;5075646;28;20392;-78
2023/04/01 05:48:53;;;;;;;5.30;3.25;;;10.40;99.90;;;;;;5075747;28;20043;-78
2023/04/01 05:51:19;;;;;;;4.32;2.90;;;10.40;99.90;;;;;;5075437;28;20063;-79
2023/04/01 05:53:44;;;;;;;4.55;2.88;;;10.40;99.90;;;;;;5073912;28;20044;-78
2023/04/01 05:56:10;;;;;;;4.30;2.42;;;10.40;99.90;;;;;;5074088;28;20044;-78
2023/04/01 05:58:37;;;;;;;4.97;2.50;;;10.40;99.90;;;;;;5075544;28;20475;-78
2023/04/01 06:01:08;;;;;;;4.88;3.03;;;10.40;99.90;;;;;;5059000;28;20495;-78
2023/04/01 06:03:34;;;;;;;4.15;2.60;;;10.40;99.90;;;;;;5070909;28;20479;-78
2023/04/01 06:06:00;;;;;;;4.20;2.42;;;10.40;99.90;;;;;;5075866;28;20051;-80
2023/04/01 06:08:27;;;;;;;5.40;3.30;;;10.40;99.90;;;;;;5073999;28;20040;-79
2023/04/01 06:11:27;;;;;;;5.93;3.20;;;10.40;99.90;;;;;;5075333;28;20074;-78
2023/04/01 06:14:11;;;;;;;4.43;3.05;;;10.40;99.90;;;;;;5075818;28;20086;-78
2023/04/01 06:17:09;;;;;;;6.60;3.35;;;10.40;99.90;;;;;;5091991;28;20039;-79
2023/04/01 06:20:12;;;;;;;5.70;3.83;;;10.40;99.90;;;;;;5056826;28;20263;-79
2023/04/01 06:22:56;;;;;;;;;;;10.40;99.90;;;;;;5074044;28;20446;-79
2023/04/01 06:25:47;;;;;;;6.30;3.90;;;10.40;99.90;;;;;;5074140;28;20005;-78
2023/04/01 06:29:09;;;;;;;7.00;4.13;;;10.50;99.90;;;;;;5068522;28;20044;-79
2023/04/01 06:31:55;;;;;;;6.38;3.97;;;10.50;99.90;;;;;;4974891;28;20038;-79
2023/04/01 06:34:52;;;;;;;7.30;4.32;;;10.50;99.90;;;;;;4974742;28;20042;-78
2023/04/01 06:37:39;;;;;;;7.38;4.60;;;10.50;99.90;;;;;;5066026;28;20052;-78
2023/04/01 06:40:19;;;;;;;9.18;4.60;;;10.50;99.90;;;;;;5073978;28;20051;-78
2023/04/01 06:43:01;;;;;;;7.60;4.90;;;10.60;99.90;;;;;;5058070;28;20147;-78
2023/04/01 06:45:34;;;;;;;8.73;5.07;;;10.60;99.90;;;;;;5072037;28;20036;-78
2023/04/01 06:48:27;;;;;;;9.70;5.28;;;10.60;99.90;;;;;;5074637;28;20083;-78
2023/04/01 06:51:08;;;;;;;9.40;5.78;;;10.60;99.90;;;;;;5074240;28;20031;-80
2023/04/01 06:53:42;;;;;;;8.73;5.78;;;10.60;99.90;;;;;;5073764;28;20491;-78
2023/04/01 06:56:14;;;;;;;10.20;6.22;;;10.60;99.90;;;;;;5071046;28;20082;-78
2023/04/01 06:58:49;;;;;;;;;;;10.60;99.90;;;;;;5073064;28;20044;-79
2023/04/01 07:01:22;;;;;;;11.23;6.30;;;10.70;99.90;;;;;;5074479;28;19916;-79
2023/04/01 07:04:04;;;;;;;9.52;5.90;;;10.70;99.90;;;;;;5069955;28;20044;-78
2023/04/01 07:06:59;;;;;;;11.60;7.13;;;10.70;99.90;;;;;;5070395;28;20092;-79
2023/04/01 07:09:28;;;;;;;11.48;7.05;;;10.70;99.90;;;;;;5074554;28;20442;-78
2023/04/01 07:11:59;;;;;;;11.95;7.32;;;10.70;99.90;;;;;;5057368;28;20495;-79
2023/04/01 07:14:36;;;;;;;10.68;6.40;;;10.70;99.90;;;;;;5084124;28;20036;-79
2023/04/01 07:17:15;;;;;;;11.35;6.88;;;10.70;99.90;;;;;;5073213;28;20063;-79
2023/04/01 07:19:56;;;;;;;11.38;6.78;;;10.80;99.90;;;;;;5072039;28;20048;-79
2023/04/01 07:22:44;;;;;;;10.77;6.15;;;10.90;99.90;;;;;;5073722;28;20040;-79
2023/04/01 07:25:35;;;;;;;9.85;5.70;;;10.90;99.90;;;;;;5072705;28;20040;-79
2023/04/01 07:28:10;;;;;;;10.10;5.93;;;10.90;99.90;;;;;;5088401;28;20055;-79
2023/04/01 07:30:53;;;;;;;10.07;5.53;;;11.00;99.90;;;;;;5071375;28;20032;-79
2023/04/01 07:33:39;;;;;;;10.60;5.32;;;11.00;99.90;;;;;;5071086;28;20036;-79
2023/04/01 07:36:22;;;;;;;9.38;5.45;;;11.10;99.90;;;;;;5071756;28;20114;-78
2023/04/01 07:39:14;;;;;;;8.93;5.20;;;11.20;99.90;;;;;;5057031;28;20044;-79
2023/04/01 07:42:04;;;;;;;10.52;5.90;;;11.20;99.90;;;;;;5068020;28;20384;-79
2023/04/01 07:44:57;;;;;;;11.70;6.60;;;11.30;99.90;;;;;;5067780;28;20036;-79
2023/04/01 07:47:25;;;;;;;;;;;11.30;99.90;;;;;;5073331;28;20492;-78
2023/04/01 07:50:27;;;;;;;9.30;6.30;;;11.30;99.90;;;;;;5073662;28;20391;-79
2023/04/01 07:53:31;;;;;;;10.32;6.10;;;11.30;99.90;;;;;;5069392;28;20036;-79
2023/04/01 07:55:59;;;;;;;10.85;6.25;;;11.30;99.90;;;;;;5081409;28;20466;-79
2023/04/01 07:58:57;;;;;;;12.30;7.43;;;11.40;99.90;;;;;;5071690;28;20082;-79
2023/04/01 08:01:32;;;;;;;9.40;6.80;;;11.40;99.90;;;;;;5073259;28;20040;-79
2023/04/01 08:04:12;;;;;;;8.52;5.85;;;11.40;99.90;;;;;;5070124;28;20119;-78
2023/04/01 08:07:01;;;;;;;8.80;6.18;;;11.40;99.90;;;;;;5066435;28;20040;-79
2023/04/01 08:09:52;;;;;;;9.15;6.10;;;11.40;99.90;;;;;;5066507;28;20058;-79
2023/04/01 08:12:55;;;;;;;9.98;6.25;;;11.40;99.90;;;;;;5067529;28;20036;-78
2023/04/01 08:15:27;;;;;;;9.85;5.78;;;11.40;99.90;;;;;;5064392;28;20059;-79
2023/04/01 08:18:27;;;;;;;9.20;6.00;;;11.40;99.90;;;;;;5073230;28;20093;-79
2023/04/01 08:21:02;;;;;;;7.70;5.57;;;11.50;99.90;;;;;;5052754;28;20115;-78
2023/04/01 08:23:32;;;;;;;9.13;6.05;;;11.50;99.90;;;;;;5049190;28;20389;-78
2023/04/01 08:26:02;;;;;;;9.07;4.80;;;11.50;99.90;;;;;;5068410;28;20518;-78
2023/04/01 08:28:40;;;;;;;7.97;4.90;;;11.50;99.90;;;;;;5066432;28;20043;-78
2023/04/01 08:31:18;;;;;;;7.55;5.30;;;11.50;99.90;;;;;;5065401;28;20469;-78
2023/04/01 08:33:47;;;;;;;8.38;5.13;;;11.50;99.90;;;;;;5065152;28;20074;-78
2023/04/01 08:36:28;;;;;;;7.05;4.65;;;11.50;99.90;;;;;;5090793;28;20036;-78
2023/04/01 08:39:03;;;;;;;7.53;4.75;;;11.60;99.90;;;;;;5071011;28;20081;-78
2023/04/01 08:41:49;;;;;;;7.03;4.53;;;11.60;99.90;;;;;;5072574;28;20553;-78
2023/04/01 08:44:40;;;;;;;5.90;4.10;;;11.60;99.90;;;;;;5072062;28;20127;-78
2023/04/01 08:47:34;;;;;;;8.02;4.53;;;11.70;99.90;;;;;;5071420;28;20054;-78
2023/04/01 08:50:02;;;;;;;7.18;4.38;;;11.70;99.90;;;;;;5073344;28;20109;-78
2023/04/01 08:52:41;;;;;;;5.10;3.78;;;11.80;99.90;;;;;;5073080;28;20028;-78
2023/04/01 08:55:28;;;;;;;5.35;3.53;;;11.80;99.90;;;;;;5071611;28;20416;-78
2023/04/01 08:58:31;;;;;;;5.00;3.15;;;11.80;99.90;;;;;;5073107;28;20127;-78
2023/04/01 09:01:21;;;;;;;5.68;2.90;;;12.00;99.90;;;;;;5069547;28;20051;-78
2023/04/01 09:04:04;;;;;;;4.47;2.97;;;12.00;99.90;;;;;;5072308;28;20047;-78
2023/04/01 09:06:35;;;;;;;5.03;3.00;;;12.00;99.90;;;;;;5090491;28;20590;-78
2023/04/01 09:09:29;;;;;;;4.05;2.70;;;12.10;99.90;;;;;;5072145;28;20048;-78
2023/04/01 09:12:32;;;;;;;5.50;3.10;;;12.00;99.90;;;;;;5069906;28;20043;-78
2023/04/01 09:15:26;;;;;;;4.40;2.88;;;12.00;99.90;;;;;;5069180;28;20048;-78
2023/04/01 09:18:15;;;;;;;4.60;2.70;;;12.00;99.90;;;;;;5068697;28;20043;-78
2023/04/01 09:20:59;;;;;;;5.10;3.30;;;12.00;99.90;;;;;;5067136;28;20063;-78
2023/04/01 09:23:35;;;;;;;5.25;2.80;;;12.00;99.90;;;;;;5081848;28;20044;-78
2023/04/01 09:26:15;;;;;;;3.50;2.40;;;11.90;99.90;;;;;;5068901;28;20500;-78
2023/04/01 09:28:49;;;;;;;4.47;2.55;;;11.90;99.90;;;;;;5072260;28;20075;-78
2023/04/01 09:31:33;;;;;;;3.65;2.38;;;11.90;99.90;;;;;;5067058;28;20044;-78
2023/04/01 09:34:32;;;;;;;3.67;2.05;;;11.90;99.90;;;;;;5088168;28;20040;-78
2023/04/01 09:37:21;;;;;;;4.20;1.80;;;11.90;99.90;;;;;;5064857;28;20059;-78
2023/04/01 09:40:00;;;;;;;3.00;1.60;;;11.90;99.90;;;;;;5085997;28;20391;-79
2023/04/01 09:43:04;;;;;;;3.55;1.30;;;11.90;99.90;;;;;;5067853;28;20047;-78
2023/04/01 09:45:44;;;;;;;2.10;1.63;;;12.00;99.90;;;;;;5069334;28;20070;-78
2023/04/01 09:48:15;;;;;;;2.38;1.40;;;12.00;99.90;;;;;;5071927;28;20564;-78
2023/04/01 09:51:11;;;;;;;2.73;1.40;;;12.00;99.90;;;;;;5075891;28;20063;-78
2023/04/01 09:54:01;;;;;;;2.65;1.42;;;12.10;99.90;;;;;;5069684;28;20172;-78
2023/04/01 09:56:27;;;;;;;2.55;1.60;;;12.10;99.90;;;;;;5075209;28;20162;-78
2023/04/01 09:59:26;;;;;;;2.67;2.00;;;12.20;99.90;;;;;;5073405;28;20078;-78
2023/04/01 10:02:11;;;;;;;3.53;2.30;;;12.20;99.90;;;;;;5073699;28;20071;-78
2023/04/01 10:04:54;;;;;;;4.10;2.70;;;12.20;99.90;;;;;;5074756;28;20518;-77
2023/04/01 10:07:37;;;;;;;3.97;2.78;;;12.20;99.90;;;;;;5072698;28;20040;-78
2023/04/01 10:10:40;;;;;;;5.63;2.88;;;12.20;99.90;;;;;;5073362;28;20404;-78
2023/04/01 10:13:20;;;;;;;4.60;3.05;;;12.20;99.90;;;;;;5075515;28;20505;-78
2023/04/01 10:15:46;;;;;;;5.10;3.40;;;12.20;99.90;;;;;;5075307;28;20056;-78
2023/04/01 10:18:20;;;;;;;6.22;4.20;;;12.20;99.90;;;;;;5075135;28;20058;-78
2023/04/01 10:20:54;;;;;;;6.53;4.35;;;12.20;99.90;;;;;;5073228;28;20059;-78
2023/04/01 10:23:50;;;;;;;6.93;4.63;;;12.20;99.90;;;;;;5075590;28;20458;-78
2023/04/01 10:26:37;;;;;;;8.20;5.20;;;12.30;99.90;;;;;;5074533;28;20059;-78
2023/04/01 10:29:30;;;;;;;8.15;5.68;;;12.30;99.90;;;;;;5075409;28;20050;-78
2023/04/01 10:32:14;;;;;;;;;;;12.20;99.90;;;;;;5075490;28;20097;-77
2023/04/01 10:34:54;;;;;;;9.10;5.80;;;12.20;99.90;;;;;;5073072;28;19916;-78
2023/04/01 10:37:32;;;;;;;7.97;5.45;;;12.20;99.90;;;;;;5074388;28;20377;-78
2023/04/01 10:40:28;;;;;;;9.20;5.75;;;12.20;99.90;;;;;;5058624;28;20044;-78
2023/04/01 10:43:09;;;;;;;7.90;5.50;;;12.20;99.90;;;;;;5075055;28;20075;-77
2023/04/01 10:46:00;;;;;;;7.63;5.30;;;12.20;99.90;;;;;;5074441;28;20385;-77
2023/04/01 10:49:05;;;;;;;7.40;5.32;;;12.20;99.90;;;;;;5069479;28;20055;-77
2023/04/01 10:52:06;;;;;;;8.70;5.65;;;12.30;99.90;;;;;;5068543;28;20043;-77
2023/04/01 10:54:34;;;;;;;7.45;5.45;;;12.20;99.90;;;;;;5081765;28;20562;-77
2023/04/01 10:57:35;;;;;;;7.75;5.55;;;12.20;99.90;;;;;;5068272;28;20044;-78
2023/04/01 11:00:18;;;;;;;7.43;5.10;;;12.20;99.90;;;;;;5065905;28;20470;-78
2023/04/01 11:03:11;;;;;;;7.78;5.50;;;12.10;99.90;;;;;;5069494;28;20105;-78
2023/04/01 11:05:55;;;;;;;;;;;12.00;99.90;;;;;;5092404;28;20082;-78
2023/04/01 11:08:39;;;;;;;7.03;5.03;;;12.00;99.90;;;;;;5075130;28;19923;-78
2023/04/01 11:11:38;;;;;;;7.85;5.68;;;11.90;99.90;;;;;;5076811;28;20245;-78
2023/04/01 11:14:30;;;;;;;7.47;5.18;;;11.90;99.90;;;;;;5068227;28;20042;-78
2023/04/01 11:17:11;;;;;;;7.20;5.38;;;11.90;99.90;;;;;;5071582;28;20396;-77
2023/04/01 11:19:58;;;;;;;7.80;5.72;;;11.90;99.90;;;;;;5069547;28;20041;-78
2023/04/01 11:22:30;;;;;;;7.65;5.38;;;11.80;99.90;;;;;;5067711;28;20044;-78
2023/04/01 11:25:08;;;;;;;7.78;5.53;;;11.90;99.90;;;;;;5088822;28;20094;-78
2023/04/01 11:27:59;;;;;;;7.32;5.60;;;11.90;99.90;;;;;;5068456;28;20119;-78
2023/04/01 11:30:55;;;;;;;8.00;5.65;;;11.90;99.90;;;;;;5066508;28;20079;-78
2023/04/01 11:33:38;;;;;;;8.13;5.53;;;12.00;99.90;;;;;;5070001;28;20040;-77
2023/04/01 11:36:34;;;;;;;8.32;5.53;;;12.00;99.90;;;;;;5073666;28;20124;-77
2023/04/01 11:39:27;;;;;;;7.82;5.45;;;12.00;99.90;;;;;;5088824;28;20048;-77
2023/04/01 11:42:07;;;;;;;7.47;5.30;;;12.10;99.90;;;;;;5091897;28;20040;-77
2023/04/01 11:44:35;;;;;;;8.80;5.13;;;12.20;99.90;;;;;;5073920;28;20028;-77
2023/04/01 11:47:13;;;;;;;9.10;6.00;;;12.20;99.90;;;;;;5069828;28;20052;-77
2023/04/01 11:50:14;;;;;;;7.65;5.28;;;12.20;99.90;;;;;;5092141;28;20035;-77
2023/04/01 11:53:02;;;;;;;7.65;5.82;;;12.10;99.90;;;;;;5085658;28;20551;-78
2023/04/01 11:56:02;;;;;;;7.28;5.07;;;12.00;99.90;;;;;;5083532;28;20043;-79
2023/04/01 11:58:58;;;;;;;8.60;5.43;;;11.90;99.90;;;;;;5080107;28;20060;-78
2023/04/01 12:01:33;;;;;;;6.97;5.28;;;11.80;99.90;;;;;;5087674;28;20119;-78
2023/04/01 12:04:36;;;;;;;7.40;5.07;;;11.70;99.90;;;;;;5073340;28;20514;-78
2023/04/01 12:07:37;;;;;;;6.85;5.18;;;11.60;99.90;;;;;;5091217;28;20044;-78
2023/04/01 12:10:05;;;;;;;6.28;4.70;;;11.60;99.90;;;;;;5070834;28;20049;-77
2023/04/01 12:12:41;;;;;;;7.07;5.07;;;11.60;99.90;;;;;;5073160;28;20077;-77
2023/04/01 12:15:20;;;;;;;6.95;4.68;;;11.50;99.90;;;;;;5090409;28;20090;-77
2023/04/01 12:18:00;;;;;;;7.22;4.72;;;11.60;99.90;;;;;;5071463;28;20546;-77
2023/04/01 12:20:49;;;;;;;6.97;5.00;;;11.60;99.90;;;;;;5065623;28;20078;-77
2023/04/01 12:23:27;;;;;;;6.78;4.85;;;11.60;99.90;;;;;;5072436;28;20047;-77
2023/04/01 12:26:10;;;;;;;5.95;4.47;;;11.50;99.90;;;;;;5072694;28;20496;-78
2023/04/01 12:28:48;;;;;;;7.53;4.75;;;11.50;99.90;;;;;;5050784;28;20430;-78
2023/04/01 12:31:46;;;;;;;6.47;4.70;;;11.50;99.90;;;;;;5059428;28;20509;-77
2023/04/01 12:34:34;;;;;;;6.57;4.57;;;11.50;99.90;;;;;;5046366;28;20056;-77
2023/04/01 12:37:16;;;;;;;6.18;4.30;;;11.40;99.90;;;;;;5070086;28;20448;-77
2023/04/01 12:39:51;;;;;;;5.30;4.17;;;11.50;99.90;;;;;;5074020;28;20370;-77
2023/04/01 12:42:31;;;;;;;5.75;4.60;;;11.40;99.90;;;;;;5091105;28;20309;-77
2023/04/01 12:45:15;;;;;;;7.40;4.50;;;11.40;99.90;;;;;;5072386;28;20118;-77
2023/04/01 12:48:17;;;;;;;5.85;4.38;;;11.30;99.90;;;;;;5070245;28;20043;-77
2023/04/01 12:51:09;;;;;;;7.75;4.45;;;11.30;99.90;;;;;;5085763;28;20032;-77
2023/04/01 12:54:01;;;;;;;5.97;4.25;;;11.30;99.90;;;;;;5073097;28;20515;-77
2023/04/01 12:57:03;;;;;;;6.32;4.15;;;11.30;99.90;;;;;;5045734;28;20048;-77
2023/04/01 12:59:42;;;;;;;6.50;4.43;;;11.20;99.90;;;;;;5091908;28;20496;-77
2023/04/01 13:02:39;;;;;;;6.38;3.92;;;11.20;99.90;;;;;;5072453;28;20488;-77
2023/04/01 13:05:30;;;;;;;5.25;3.90;;;11.20;99.90;;;;;;5091762;28;20085;-77
2023/04/01 13:08:05;;;;;;;5.22;3.65;;;11.20;99.90;;;;;;5069942;28;20516;-77
2023/04/01 13:10:42;;;;;;;5.60;3.80;;;11.20;99.90;;;;;;5091345;28;20062;-77
2023/04/01 13:13:31;;;;;;;4.60;3.53;;;11.20;99.90;;;;;;5073447;28;20545;-77
2023/04/01 13:16:26;;;;;;;5.28;3.42;;;11.20;99.90;;;;;;5070376;28;20054;-77
2023/04/01 13:19:34;;;;;;;4.95;3.72;;;11.20;99.90;;;;;;5072543;28;20051;-77
2023/04/01 13:22:22;;;;;;;5.53;3.65;;;11.20;99.90;;;;;;5092368;28;20047;-77
2023/04/01 13:24:58;;;;;;;4.88;3.65;;;11.10;99.90;;;;;;5090874;28;20040;-77
2023/04/01 13:27:30;;;;;;;4.80;3.67;;;11.10;99.90;;;;;;5070480;28;20042;-77
2023/04/01 13:30:27;;;;;;;6.53;3.97;;;11.10;99.90;;;;;;5090007;28;20395;-77
2023/04/01 13:33:11;;;;;;;5.03;3.58;;;11.10;99.90;;;;;;5093343;28;20056;-77
2023/04/01 13:35:57;;;;;;;6.57;3.85;;;11.10;99.90;;;;;;5069162;28;20071;-77
2023/04/01 13:38:40;;;;;;;5.63;3.47;;;11.10;99.90;;;;;;5076467;28;20044;-77
2023/04/01 13:41:23;;;;;;;5.97;3.35;;;11.10;99.90;;;;;;5075325;28;20091;-77